Latest Weather Observations for Marree Airport

IDS60801

Issued at 10:01 pm CDT Thursday 23 February 2017 (issued every 30 minutes, with the page automatically refreshed every 10 minutes)

About weather observations | Map of weather stations | Latest weather observations for SA | Other Formats
Station Details ID: 017126 Name: MARREE AERO Lat: -29.66 Lon: 138.07 Height: 50.0 m
Data from the previous 72 hours. | See also: Recent months at Marree Airport
Date/Time
CDT
Temp
°C
App
Temp
°C
Dew
Point
°C
Rel
Hum
%
Delta-T
°C
Wind Press
QNH
hPa
Press
MSL
hPa
Rain since
9am
mm
Dir  Spd
km/h
Gust
km/h
Spd
kts
Gust
kts
23/09:30pm 27.5 22.8 1.1 18 12.6 SSW 15 17 8 9 1018.3 1018.0 0.0
23/09:00pm 28.5 23.3 0.3 16 13.4 SSW 17 20 9 11 1018.1 1017.8 0.0
23/08:30pm 29.6 23.7 -0.7 14 14.3 SSW 20 33 11 18 1017.6 1017.3 0.0
23/08:00pm 30.9 24.6 -0.7 13 15.0 SSW 22 30 12 16 1017.4 1017.1 0.0
23/07:30pm 32.2 25.9 -0.8 12 15.8 SSW 22 28 12 15 1016.9 1016.6 0.0
23/07:00pm 33.3 27.0 -1.1 11 16.5 SSW 22 30 12 16 1016.7 1016.4 0.0
23/06:30pm 33.8 27.5 -0.7 11 16.7 SW 22 32 12 17 1016.5 1016.2 0.0
23/06:00pm 34.6 28.0 -0.1 11 17.1 SW 24 35 13 19 1016.3 1016.0 0.0
23/05:30pm 34.6 29.0 1.1 12 16.8 SW 20 30 11 16 1016.2 1015.9 0.0
23/05:00pm 34.5 29.1 1.0 12 16.8 SW 19 32 10 17 1016.3 1016.0 0.0
23/04:30pm 34.8 29.2 3.4 14 16.4 SW 22 32 12 17 1016.4 1016.1 0.0
23/04:00pm 34.6 30.7 3.2 14 16.3 SSW 13 20 7 11 1016.7 1016.4 0.0
23/03:30pm 34.4 29.3 3.1 14 16.2 S 19 30 10 16 1016.9 1016.6 0.0
23/03:00pm 33.7 29.3 2.5 14 15.9 SSW 15 24 8 13 1017.2 1016.9 0.0
23/02:30pm 33.5 29.0 4.2 16 15.4 SW 17 26 9 14 1017.5 1017.2 0.0
23/02:00pm 33.1 28.1 4.8 17 15.0 SSW 20 30 11 16 1017.8 1017.5 0.0
23/01:30pm 31.9 27.4 6.2 20 13.8 S 19 30 10 16 1017.9 1017.6 0.0
23/01:00pm 31.7 27.3 7.4 22 13.3 S 20 32 11 17 1018.2 1017.9 0.0
23/12:30pm 31.2 25.6 7.0 22 13.1 S 26 33 14 18 1018.3 1018.0 0.0
23/12:00pm 31.0 24.9 6.8 22 13.0 S 28 39 15 21 1018.5 1018.2 0.0
23/11:30am 29.8 23.0 7.1 24 12.2 S 32 39 17 21 1018.6 1018.3 0.0
23/11:00am 28.5 21.3 7.7 27 11.3 S 35 43 19 23 1018.6 1018.3 0.0
23/10:30am 27.6 20.7 9.0 31 10.2 S 35 48 19 26 1018.6 1018.3 0.0
23/10:00am 25.7 19.0 9.5 36 8.9 S 35 46 19 25 1018.5 1018.2 0.0
23/09:30am 24.4 17.0 9.9 40 8.0 S 39 48 21 26 1018.3 1018.0 0.0
23/09:00am 22.8 14.8 10.6 46 6.7 S 43 54 23 29 1017.5 1017.2 -
23/08:30am 21.8 13.8 10.6 49 6.1 S 43 54 23 29 1017.5 1017.2 -
23/08:00am 20.9 13.7 10.4 51 5.7 S 39 48 21 26 1017.2 1016.9 -
23/07:30am 20.4 14.3 9.9 51 5.6 S 32 43 17 23 1016.9 1016.6 -
23/07:00am 20.4 13.7 9.6 50 5.8 S 35 41 19 22 1016.2 1015.9 -
23/06:30am 20.7 14.0 9.6 49 5.9 S 35 48 19 26 1015.8 1015.5 -
23/06:00am 21.1 14.2 10.3 50 5.9 S 37 50 20 27 1015.5 1015.1 -
23/05:30am 21.4 13.9 10.9 51 5.8 S 41 52 22 28 1015.1 1014.7 -
23/05:00am 22.0 13.9 10.8 49 6.2 S 44 59 24 32 1014.7 1014.3 -
23/04:30am 22.6 14.3 10.1 45 6.8 S 44 63 24 34 1014.4 1014.0 -
23/04:22am 22.8 14.5 9.9 44 7.0 S 44 63 24 34 1014.3 1013.9 -
23/04:00am 23.2 15.6 8.9 40 7.7 S 39 56 21 30 1014.2 1013.8 -
23/03:30am 23.9 15.6 7.9 36 8.5 S 41 50 22 27 1014.1 1013.7 -
23/03:00am 24.8 16.8 7.4 33 9.2 S 39 50 21 27 1014.0 1013.6 0.0
23/02:30am 25.7 17.8 6.3 29 10.1 S 37 46 20 25 1013.9 1013.5 -
23/02:00am 26.3 18.1 2.9 22 11.5 S 35 46 19 25 1014.1 1013.7 -
23/01:30am 27.2 19.9 2.3 20 12.2 S 30 39 16 21 1014.3 1013.9 -
23/01:00am 27.6 21.4 1.9 19 12.5 S 24 35 13 19 1014.4 1014.0 -
23/12:30am 27.9 21.9 3.6 21 12.2 S 24 30 13 16 1014.4 1014.0 -
23/12:00am 28.4 22.0 5.3 23 12.0 S 28 39 15 21 1014.3 1013.9 -
 
Date/Time
CDT
Temp
°C
App
Temp
°C
Dew
Point
°C
Rel
Hum
%
Delta-T
°C
Wind Press
QNH
hPa
Press
MSL
hPa
Rain since
9am
mm
Dir  Spd
km/h
Gust
km/h
Spd
kts
Gust
kts
22/11:30pm 29.2 22.7 6.6 24 12.0 S 30 39 16 21 1014.1 1013.7 -
22/11:00pm 30.0 23.3 7.2 24 12.3 S 32 39 17 21 1013.8 1013.4 -
22/10:35pm 30.8 24.5 7.3 23 12.8 S 30 48 16 26 1013.4 1013.0 -
22/10:30pm 30.7 25.0 6.6 22 13.0 S 26 32 14 17 1013.4 1013.0 -
22/10:00pm 31.6 25.7 5.9 20 13.7 SSW 26 33 14 18 1012.8 1012.4 -
22/09:30pm 32.8 27.0 4.6 17 14.8 SSW 24 32 13 17 1012.1 1011.7 -
22/09:00pm 30.8 25.9 -3.0 11 15.5 WNW 13 24 7 13 1011.4 1011.0 0.0
22/08:30pm 33.0 28.2 -2.6 10 16.7 WNW 13 15 7 8 1010.7 1010.3 -
22/08:00pm 35.6 29.3 -3.7 8 18.4 W 20 26 11 14 1010.3 1009.9 -
22/07:30pm 37.2 31.1 -2.5 8 19.2 WNW 20 28 11 15 1010.0 1009.6 -
22/07:00pm 38.0 32.3 -3.7 7 19.8 NW 17 26 9 14 1009.8 1009.4 -
22/06:30pm 38.5 31.9 -3.4 7 20.1 WNW 22 35 12 19 1009.8 1009.4 -
22/06:00pm 39.0 32.4 -3.0 7 20.4 WNW 22 28 12 15 1009.7 1009.3 -
22/05:30pm 38.6 32.0 -3.3 7 20.2 WNW 22 43 12 23 1009.8 1009.4 -
22/05:00pm 39.0 32.1 -3.0 7 20.3 WNW 24 33 13 18 1009.9 1009.5 -
22/04:30pm 38.9 32.3 -3.1 7 20.3 NW 22 32 12 17 1010.1 1009.7 -
22/04:00pm 38.9 31.9 -3.1 7 20.3 NW 24 37 13 20 1010.2 1009.8 -
22/03:30pm 38.7 32.5 -3.2 7 20.2 WNW 20 30 11 16 1010.4 1010.0 -
22/03:00pm 38.0 31.0 -3.7 7 19.9 WNW 24 39 13 21 1010.8 1010.4 -
22/02:30pm 38.2 31.2 -3.6 7 20.0 NW 24 39 13 21 1011.1 1010.7 -
22/02:00pm 37.6 30.9 -4.0 7 19.6 NW 22 37 12 20 1011.3 1010.9 -
22/01:30pm 37.6 30.9 -4.0 7 19.7 NW 22 33 12 18 1011.6 1011.2 -
22/01:00pm 36.9 30.0 -2.7 8 19.0 NNW 24 41 13 22 1011.9 1011.5 -
22/12:00pm 36.0 29.2 -1.8 9 18.3 NNW 24 35 13 19 1012.4 1012.0 0.0
22/11:30am 35.3 28.8 -2.3 9 18.0 N 22 32 12 17 1012.9 1012.5 0.0
22/11:00am 34.3 26.8 -1.7 10 17.2 NNE 28 35 15 19 1012.7 1012.3 0.0
22/10:30am 33.0 25.8 0.9 13 15.9 NNE 28 35 15 19 1012.7 1012.3 0.0
22/10:00am 31.1 24.0 1.4 15 14.7 NNE 28 35 15 19 1012.9 1012.5 0.0
22/09:30am 29.5 22.9 1.9 17 13.6 NNE 26 32 14 17 1012.7 1012.3 0.0
22/09:00am 27.5 21.2 1.8 19 12.5 NE 24 33 13 18 1012.7 1012.3 0.0
22/08:30am 25.8 20.9 1.8 21 11.5 NE 17 22 9 12 1012.8 1012.4 0.0
22/08:00am 23.7 18.5 2.5 25 10.1 NE 19 24 10 13 1012.4 1012.0 0.0
22/07:30am 21.6 16.8 2.8 29 8.9 NE 17 22 9 12 1011.9 1011.5 0.0
22/07:00am 18.5 15.5 1.9 33 7.5 E 7 9 4 5 1012.3 1011.9 0.0
22/06:30am 20.5 17.5 2.3 30 8.5 ENE 7 11 4 6 1012.3 1011.9 0.0
22/06:00am 20.8 17.4 2.1 29 8.7 NE 9 11 5 6 1012.0 1011.6 0.0
22/05:30am 20.3 18.2 1.7 29 8.5 ENE 2 7 1 4 1011.8 1011.4 0.0
22/05:00am 21.4 18.4 1.7 27 9.1 NE 7 9 4 5 1011.6 1011.2 0.0
22/04:30am 21.9 18.8 1.6 26 9.4 NE 7 11 4 6 1011.5 1011.1 0.0
22/04:00am 21.6 17.7 1.3 26 9.3 ENE 11 15 6 8 1011.5 1011.1 0.0
22/03:30am 21.3 18.1 0.5 25 9.4 ENE 7 11 4 6 1011.7 1011.3 0.0
22/03:00am 22.2 19.1 1.3 25 9.7 NE 7 11 4 6 1012.0 1011.6 0.0
22/02:30am 21.9 18.4 1.0 25 9.6 ENE 9 11 5 6 1012.4 1012.0 0.0
22/02:00am 22.8 18.1 1.2 24 10.0 ENE 15 17 8 9 1012.5 1012.1 0.0
22/01:30am 22.9 17.9 1.3 24 10.0 ENE 17 17 9 9 1012.7 1012.3 0.0
22/01:00am 23.1 18.5 1.5 24 10.1 ENE 15 17 8 9 1013.1 1012.7 0.0
22/12:30am 23.5 18.9 1.8 24 10.2 ENE 15 17 8 9 1013.3 1012.9 0.0
22/12:00am 23.5 18.9 1.8 24 10.2 ENE 15 17 8 9 1013.3 1012.9 0.0
 
Date/Time
CDT
Temp
°C
App
Temp
°C
Dew
Point
°C
Rel
Hum
%
Delta-T
°C
Wind Press
QNH
hPa
Press
MSL
hPa
Rain since
9am
mm
Dir  Spd
km/h
Gust
km/h
Spd
kts
Gust
kts
21/11:30pm 24.1 19.5 1.7 23 10.6 ENE 15 17 8 9 1013.5 1013.1 0.0
21/11:00pm 24.6 20.9 2.1 23 10.8 ENE 11 13 6 7 1013.8 1013.4 0.0
21/10:30pm 26.0 21.9 2.0 21 11.6 NE 13 15 7 8 1013.8 1013.4 0.0
21/10:00pm 26.6 22.2 2.5 21 11.8 ENE 15 15 8 8 1013.5 1013.1 0.0
21/09:30pm 28.1 23.6 2.3 19 12.7 ENE 15 19 8 10 1013.4 1013.0 0.0
21/09:00pm 29.1 25.0 2.4 18 13.2 NE 13 15 7 8 1013.1 1012.7 0.0
21/08:30pm 30.3 26.1 1.7 16 14.1 NNE 13 17 7 9 1013.0 1012.6 0.0
21/08:00pm 31.4 27.2 1.7 15 14.8 NE 13 17 7 9 1012.7 1012.3 0.0
21/07:30pm 32.5 28.3 1.6 14 15.4 NNE 13 20 7 11 1012.5 1012.1 0.0
21/07:00pm 32.8 28.2 1.8 14 15.6 NNE 15 22 8 12 1012.3 1011.9 0.0
21/06:30pm 33.0 28.1 2.0 14 15.7 NNE 17 20 9 11 1012.2 1011.8 0.0
21/06:00pm 33.2 27.8 1.1 13 16.0 NNE 19 32 10 17 1012.3 1011.9 0.0
21/05:30pm 33.3 29.4 1.2 13 16.0 N 11 17 6 9 1012.5 1012.1 0.0
21/05:00pm 33.0 28.3 0.9 13 15.9 NNE 15 24 8 13 1012.6 1012.2 0.0
21/04:30pm 32.8 28.8 0.8 13 15.8 N 11 20 6 11 1012.9 1012.5 0.0
21/04:00pm 32.9 29.7 0.9 13 15.8 NNW 7 11 4 6 1013.4 1013.0 0.0
21/03:30pm 32.7 28.1 1.7 14 15.5 NNE 15 22 8 12 1013.9 1013.5 0.0
21/03:00pm 31.8 27.1 1.0 14 15.2 NNE 15 24 8 13 1014.5 1014.1 0.0
21/02:30pm 31.9 27.9 3.0 16 14.7 NNE 13 22 7 12 1015.0 1014.6 0.0
21/02:00pm 32.0 28.4 3.1 16 14.8 NNE 11 22 6 12 1015.6 1015.2 0.0
21/01:30pm 31.3 26.6 3.4 17 14.2 NE 17 28 9 15 1016.0 1015.7 0.0
21/01:00pm 30.5 27.0 3.5 18 13.8 NNE 11 20 6 11 1016.4 1016.1 0.0
21/12:30pm 30.8 26.6 3.8 18 13.8 NNE 15 28 8 15 1017.0 1016.7 0.0
21/12:00pm 30.0 24.3 3.1 18 13.6 NE 22 30 12 16 1017.3 1017.0 0.0
21/11:30am 29.3 23.3 3.3 19 13.1 ENE 24 35 13 19 1017.9 1017.6 0.0
21/11:00am 28.3 21.1 3.2 20 12.6 ENE 30 39 16 21 1018.2 1017.9 0.0
21/10:30am 27.4 19.9 3.2 21 12.0 ENE 32 37 17 20 1018.3 1018.0 0.0
21/10:00am 26.5 19.7 3.1 22 11.5 ENE 28 37 15 20 1018.3 1018.0 0.0
21/09:30am 25.2 18.0 3.2 24 10.8 ENE 30 35 16 19 1018.3 1018.0 0.0
21/09:00am 24.1 16.9 2.9 25 10.2 ENE 30 41 16 22 1018.1 1017.8 0.0
21/08:30am 22.7 15.2 3.3 28 9.3 ENE 32 41 17 22 1017.9 1017.6 0.0
21/08:25am 22.5 15.7 3.1 28 9.3 ENE 28 39 15 21 1017.9 1017.6 0.0
21/08:00am 20.5 16.7 4.1 34 7.9 E 13 19 7 10 1017.8 1017.5 0.0
21/07:30am 16.4 12.6 3.8 43 5.8 SE 13 15 7 8 1017.4 1017.1 0.0
21/07:00am 15.5 11.6 3.6 45 5.5 SSE 13 15 7 8 1016.9 1016.6 0.0
21/06:30am 15.3 11.3 2.8 43 5.6 SSE 13 15 7 8 1016.6 1016.3 0.0
21/06:00am 15.4 10.9 2.2 41 5.9 SSE 15 17 8 9 1016.2 1015.9 0.0
21/05:30am 15.4 10.8 1.5 39 6.1 SSE 15 17 8 9 1016.0 1015.7 0.0
21/05:00am 16.1 11.6 2.2 39 6.2 SSE 15 15 8 8 1015.9 1015.6 0.0
21/04:30am 16.4 11.8 1.7 37 6.5 SSE 15 15 8 8 1015.7 1015.4 0.0
21/04:00am 16.9 12.4 2.1 37 6.7 SSE 15 17 8 9 1015.6 1015.2 0.0
21/03:30am 17.4 13.7 2.6 37 6.7 SE 11 15 6 8 1015.7 1015.4 0.0
21/03:00am 17.7 14.0 2.1 35 7.1 ESE 11 11 6 6 1015.8 1015.5 0.0
21/02:30am 18.1 14.7 2.0 34 7.3 SE 9 11 5 6 1015.9 1015.6 0.0
21/02:00am 18.4 15.0 1.9 33 7.5 SE 9 11 5 6 1016.1 1015.8 0.0
21/01:30am 18.9 15.9 1.9 32 7.7 SE 7 9 4 5 1016.2 1015.9 0.0
21/01:00am 20.1 16.3 2.0 30 8.3 ESE 11 15 6 8 1016.4 1016.1 0.0
21/12:30am 20.5 16.3 1.9 29 8.6 E 13 17 7 9 1016.6 1016.3 0.0
21/12:00am 19.8 16.0 1.7 30 8.3 SSE 11 11 6 6 1016.6 1016.3 0.0
 
Date/Time
CDT
Temp
°C
App
Temp
°C
Dew
Point
°C
Rel
Hum
%
Delta-T
°C
Wind Press
QNH
hPa
Press
MSL
hPa
Rain since
9am
mm
Dir  Spd
km/h
Gust
km/h
Spd
kts
Gust
kts
20/11:30pm 20.3 16.9 1.7 29 8.5 SSE 9 11 5 6 1016.6 1016.3 0.0
20/11:00pm 22.2 18.9 2.3 27 9.4 S 9 11 5 6 1016.4 1016.1 0.0
20/10:30pm 22.7 19.1 2.8 27 9.5 S 11 13 6 7 1016.4 1016.1 0.0

Other Formats:

Comma delimited format used in spreadsheet applications
http://www.bom.gov.au/fwo/IDS60801/IDS60801.95480.axf

JavaScript Object Notation format (JSON) in row-major order
http://www.bom.gov.au/fwo/IDS60801/IDS60801.95480.json